HKKI

Kisumu Airport

Kisumu, Kenya
METAR HKKI 211900Z 27003KT 9999 FEW021 21/18 Q1013
Observed Flight Rules
Jan-21 @ 19:00 UTC (an hour ago) Visual Flight Rules
Wind Visibility Clouds
270° at 3 knots 10,000+ meters
  • Few at 2,100' AGL
Temperatures Readings
Current 21°C / 70°F
Dewpoint 18°C / 64°F
Humidity 83%
Altimeter 29.91" Hg
Pressure 1013 hPa
Elevation 1146
METAR HKKI 211900Z 27003KT 9999 FEW021 21/18 Q1013
Observed Flight Rules
Jan-21 @ 19:00 UTC
(an hour ago)
VFR
Wind Visibility
270° at 3 knots 10,000+ meters
Clouds
  • Few at 2,100' AGL
Temperature Dewpoint
21°C / 70°F 18°C / 64°F
Humidity Altimeter Pressure
83% 29.91" Hg 1013 hPa